Time;durP1;ratioP1;P1;durP2;ratioP2;P2;SDS_P1;SDS_P2;PMS_P1;PMS_P2;Temp;Humidity;BMP_temperature;BMP_pressure;BME280_temperature;BME280_humidity;BME280_pressure;Samples;Min_cycle;Max_cycle;Signal;HPM_P1;HPM_P2
2022/09/24 00:00:28;;;;;;;16.57;14.90;;;;;;;;;;4963365;28;20183;-53
2022/09/24 00:02:54;;;;;;;16.17;13.73;;;;;;;;;;4969122;28;20188;-53
2022/09/24 00:05:20;;;;;;;17.93;14.47;;;;;;;;;;4970077;28;20214;-53
2022/09/24 00:07:46;;;;;;;14.67;13.17;;;;;;;;;;4967673;28;20188;-53
2022/09/24 00:10:12;;;;;;;14.73;13.20;;;;;;;;;;4970859;28;20191;-53
2022/09/24 00:12:38;;;;;;;14.97;13.47;;;;;;;;;;4968980;28;20284;-53
2022/09/24 00:15:05;;;;;;;13.70;12.30;;;;;;;;;;4969470;28;20786;-53
2022/09/24 00:17:31;;;;;;;14.50;13.17;;;;;;;;;;4949902;28;20211;-53
2022/09/24 00:19:57;;;;;;;14.67;12.67;;;;;;;;;;4970174;28;20665;-53
2022/09/24 00:22:23;;;;;;;16.23;13.27;;;;;;;;;;4969849;28;20230;-53
2022/09/24 00:27:34;;;;;;;15.07;13.57;;;;;;;;;;4963530;28;20195;-53
2022/09/24 00:30:00;;;;;;;15.47;13.90;;;;;;;;;;4970025;28;20192;-53
2022/09/24 00:32:26;;;;;;;17.10;13.97;;;;;;;;;;4953721;28;20726;-53
2022/09/24 00:34:53;;;;;;;16.37;14.67;;;;;;;;;;4951855;29;20196;-53
2022/09/24 00:37:19;;;;;;;14.93;13.37;;;;;;;;;;4960937;28;20614;-53
2022/09/24 00:39:45;;;;;;;15.57;13.17;;;;;;;;;;4969730;28;20183;-53
2022/09/24 00:42:12;;;;;;;14.57;13.17;;;;;;;;;;4965264;28;20635;-53
2022/09/24 00:44:39;;;;;;;14.53;11.80;;;;;;;;;;4969160;28;20199;-53
2022/09/24 00:47:06;;;;;;;12.30;11.10;;;;;;;;;;4964421;28;20183;-53
2022/09/24 00:49:32;;;;;;;13.13;11.67;;;;;;;;;;4970123;28;20283;-53
2022/09/24 00:51:58;;;;;;;12.90;11.60;;;;;;;;;;4960671;28;20245;-53
2022/09/24 00:54:27;;;;;;;14.50;11.57;;;;;;;;;;4951274;29;20189;-53
2022/09/24 00:56:53;;;;;;;11.33;10.13;;;;;;;;;;4959734;28;20672;-53
2022/09/24 00:59:21;;;;;;;12.53;10.77;;;;;;;;;;4969071;28;20183;-53
2022/09/24 01:01:48;;;;;;;13.57;11.40;;;;;;;;;;4957713;28;20184;-53
2022/09/24 01:04:16;;;;;;;11.83;10.67;;;;;;;;;;4960893;28;20253;-53
2022/09/24 01:06:42;;;;;;;22.07;11.40;;;;;;;;;;4965593;28;20199;-53
2022/09/24 01:09:22;;;;;;;11.77;10.53;;;;;;;;;;4968342;28;20183;-53
2022/09/24 01:11:57;;;;;;;13.07;11.27;;;;;;;;;;4959707;28;20184;-53
2022/09/24 01:14:52;;;;;;;12.60;11.30;;;;;;;;;;4955059;28;20661;-53
2022/09/24 01:17:26;;;;;;;13.13;10.87;;;;;;;;;;4958610;28;20180;-53
2022/09/24 01:20:11;;;;;;;13.03;11.67;;;;;;;;;;4966542;28;20850;-53
2022/09/24 01:22:56;;;;;;;12.50;11.20;;;;;;;;;;4964600;28;20192;-53
2022/09/24 01:25:37;;;;;;;12.40;11.20;;;;;;;;;;4969958;28;20172;-53
2022/09/24 01:28:10;;;;;;;12.53;11.33;;;;;;;;;;4969325;28;20646;-53
2022/09/24 01:30:37;;;;;;;12.33;11.03;;;;;;;;;;4966259;28;20184;-53
2022/09/24 01:33:07;;;;;;;15.60;11.27;;;;;;;;;;4967384;28;20195;-53
2022/09/24 01:35:44;;;;;;;13.43;12.02;;;;;;;;;;4968411;28;20440;-53
2022/09/24 01:38:28;;;;;;;12.30;11.00;;;;;;;;;;4965196;28;20207;-53
2022/09/24 01:40:55;;;;;;;12.77;10.97;;;;;;;;;;4949569;28;20188;-53
2022/09/24 01:43:24;;;;;;;13.60;12.10;;;;;;;;;;4969558;28;20564;-53
2022/09/24 01:45:51;;;;;;;13.07;11.37;;;;;;;;;;4964517;28;20726;-53
2022/09/24 01:48:20;;;;;;;12.03;10.73;;;;;;;;;;4962962;28;20187;-53
2022/09/24 01:51:15;;;;;;;12.53;10.93;;;;;;;;;;4968636;28;20204;-53
2022/09/24 01:53:47;;;;;;;11.67;10.30;;;;;;;;;;4944988;29;20702;-53
2022/09/24 01:56:19;;;;;;;12.67;10.70;;;;;;;;;;4953968;28;20669;-53
2022/09/24 01:58:51;;;;;;;12.67;11.27;;;;;;;;;;4969054;28;20184;-52
2022/09/24 02:01:21;;;;;;;10.57;9.57;;;;;;;;;;4945521;28;20655;-52
2022/09/24 02:03:50;;;;;;;11.73;10.50;;;;;;;;;;4953811;28;20537;-53
2022/09/24 02:06:19;;;;;;;11.27;9.30;;;;;;;;;;4953103;28;20191;-53
2022/09/24 02:08:46;;;;;;;11.23;10.13;;;;;;;;;;4946790;28;20191;-52
2022/09/24 02:11:23;;;;;;;11.23;10.13;;;;;;;;;;4967701;28;20613;-52
2022/09/24 02:13:52;;;;;;;10.77;9.70;;;;;;;;;;4969429;28;20183;-52
2022/09/24 02:16:21;;;;;;;13.37;10.50;;;;;;;;;;4964986;28;20560;-52
2022/09/24 02:18:49;;;;;;;11.23;10.13;;;;;;;;;;4968153;28;20569;-52
2022/09/24 02:21:18;;;;;;;10.40;9.20;;;;;;;;;;4963131;28;20541;-52
2022/09/24 02:23:47;;;;;;;11.27;10.07;;;;;;;;;;4957179;28;20274;-52
2022/09/24 02:26:13;;;;;;;11.27;9.97;;;;;;;;;;4966900;28;20736;-53
2022/09/24 02:28:40;;;;;;;10.87;9.73;;;;;;;;;;4969348;28;20176;-52
2022/09/24 02:31:11;;;;;;;12.57;9.63;;;;;;;;;;4965743;28;20250;-52
2022/09/24 02:36:24;;;;;;;11.20;10.10;;;;;;;;;;4966014;28;20611;-52
2022/09/24 02:38:51;;;;;;;12.73;10.37;;;;;;;;;;4967813;28;20686;-53
2022/09/24 02:41:17;;;;;;;12.30;10.00;;;;;;;;;;4966699;28;20263;-52
2022/09/24 02:43:43;;;;;;;14.47;10.97;;;;;;;;;;4968841;28;20179;-52
2022/09/24 02:46:09;;;;;;;12.37;11.13;;;;;;;;;;4962898;28;20191;-53
2022/09/24 02:48:36;;;;;;;16.27;11.03;;;;;;;;;;4965137;28;20226;-53
2022/09/24 02:51:05;;;;;;;12.87;11.57;;;;;;;;;;4969900;28;20528;-53
2022/09/24 02:53:32;;;;;;;13.23;11.20;;;;;;;;;;4971774;28;20650;-53
2022/09/24 02:55:59;;;;;;;12.30;11.00;;;;;;;;;;4971097;28;20536;-52
2022/09/24 02:58:31;;;;;;;11.60;9.73;;;;;;;;;;4970186;28;20490;-53
2022/09/24 03:00:57;;;;;;;12.13;10.93;;;;;;;;;;4968673;28;20593;-52
2022/09/24 03:03:24;;;;;;;11.87;10.07;;;;;;;;;;4971567;28;20184;-53
2022/09/24 03:05:51;;;;;;;11.03;9.80;;;;;;;;;;4970061;28;20459;-53
2022/09/24 03:08:18;;;;;;;9.83;8.83;;;;;;;;;;4968397;28;20243;-52
2022/09/24 03:10:44;;;;;;;10.53;9.40;;;;;;;;;;4972110;28;20168;-53
2022/09/24 03:13:10;;;;;;;12.23;11.03;;;;;;;;;;4958947;28;20445;-53
2022/09/24 03:15:36;;;;;;;11.20;9.00;;;;;;;;;;4970930;28;20183;-53
2022/09/24 03:18:02;;;;;;;9.43;8.37;;;;;;;;;;4963734;28;20497;-52
2022/09/24 03:20:28;;;;;;;12.50;8.97;;;;;;;;;;4972468;28;20713;-53
2022/09/24 03:22:55;;;;;;;9.50;8.60;;;;;;;;;;4970109;28;20583;-53
2022/09/24 03:25:21;;;;;;;10.17;9.07;;;;;;;;;;4972549;28;20152;-53
2022/09/24 03:27:47;;;;;;;9.07;8.17;;;;;;;;;;4969191;28;20195;-53
2022/09/24 03:32:58;;;;;;;10.93;8.97;;;;;;;;;;4969824;28;20841;-54
2022/09/24 03:35:24;;;;;;;9.20;8.30;;;;;;;;;;4971785;28;20278;-53
2022/09/24 03:37:51;;;;;;;15.97;9.30;;;;;;;;;;4951362;28;20211;-53
2022/09/24 03:40:17;;;;;;;11.30;10.20;;;;;;;;;;4971461;28;20163;-53
2022/09/24 03:42:43;;;;;;;12.47;9.10;;;;;;;;;;4952186;28;20187;-53
2022/09/24 03:45:09;;;;;;;10.60;9.50;;;;;;;;;;4951417;28;20279;-53
2022/09/24 03:47:36;;;;;;;11.60;9.00;;;;;;;;;;4963862;28;20196;-53
2022/09/24 03:50:02;;;;;;;9.77;8.57;;;;;;;;;;4971433;28;20398;-53
2022/09/24 03:52:28;;;;;;;10.23;9.03;;;;;;;;;;4969571;28;20244;-53
2022/09/24 03:54:54;;;;;;;10.40;9.17;;;;;;;;;;4970897;28;20214;-52
2022/09/24 03:57:21;;;;;;;11.67;8.83;;;;;;;;;;4966736;28;20254;-53
2022/09/24 03:59:47;;;;;;;9.63;8.50;;;;;;;;;;4969685;28;20207;-53
2022/09/24 04:02:13;;;;;;;11.67;10.47;;;;;;;;;;4967805;28;20254;-53
2022/09/24 04:04:39;;;;;;;9.17;8.27;;;;;;;;;;4958622;28;20736;-53
2022/09/24 04:07:05;;;;;;;10.13;8.83;;;;;;;;;;4965895;28;20242;-53
2022/09/24 04:09:31;;;;;;;9.87;8.87;;;;;;;;;;4971962;28;20187;-53
2022/09/24 04:11:58;;;;;;;10.23;9.17;;;;;;;;;;4968603;28;20180;-53
2022/09/24 04:14:24;;;;;;;9.60;8.60;;;;;;;;;;4970760;28;20685;-53
2022/09/24 04:16:50;;;;;;;9.77;8.77;;;;;;;;;;4967627;28;20240;-53
2022/09/24 04:19:17;;;;;;;11.00;9.60;;;;;;;;;;4968457;28;20684;-53
2022/09/24 04:21:43;;;;;;;9.53;8.63;;;;;;;;;;4958003;28;20262;-53
2022/09/24 04:24:09;;;;;;;10.50;9.37;;;;;;;;;;4971103;28;20666;-53
2022/09/24 04:26:35;;;;;;;12.20;9.40;;;;;;;;;;4969052;28;20202;-53
2022/09/24 04:29:02;;;;;;;11.17;9.73;;;;;;;;;;4969941;28;20195;-53
2022/09/24 04:31:28;;;;;;;9.90;8.90;;;;;;;;;;4969323;28;20176;-53
2022/09/24 04:33:54;;;;;;;12.10;9.53;;;;;;;;;;4969218;28;20200;-53
2022/09/24 04:36:20;;;;;;;10.67;8.90;;;;;;;;;;4966052;28;20414;-53
2022/09/24 04:38:46;;;;;;;10.00;9.00;;;;;;;;;;4968737;28;20233;-53
2022/09/24 04:41:14;;;;;;;9.87;8.77;;;;;;;;;;4968328;28;20180;-53
2022/09/24 04:43:40;;;;;;;11.23;9.07;;;;;;;;;;4955034;28;20192;-53
2022/09/24 04:46:08;;;;;;;10.67;9.60;;;;;;;;;;4953941;28;20172;-53
2022/09/24 04:48:37;;;;;;;11.90;9.47;;;;;;;;;;4969302;28;20164;-52
2022/09/24 04:51:09;;;;;;;10.17;8.33;;;;;;;;;;4970354;28;20196;-53
2022/09/24 04:53:36;;;;;;;9.83;8.57;;;;;;;;;;4951065;29;20231;-53
2022/09/24 04:56:03;;;;;;;11.40;9.10;;;;;;;;;;4931595;29;20185;-52
2022/09/24 04:58:29;;;;;;;9.97;8.40;;;;;;;;;;4934411;29;20248;-53
2022/09/24 05:00:55;;;;;;;11.40;10.30;;;;;;;;;;4950446;29;20700;-53
2022/09/24 05:03:22;;;;;;;9.47;8.57;;;;;;;;;;4949371;29;20177;-53
2022/09/24 05:05:49;;;;;;;9.13;8.23;;;;;;;;;;4950068;29;20176;-53
2022/09/24 05:08:16;;;;;;;11.17;9.77;;;;;;;;;;4948362;29;20659;-53
2022/09/24 05:10:42;;;;;;;9.97;7.80;;;;;;;;;;4951067;29;20215;-53
2022/09/24 05:13:08;;;;;;;9.27;8.37;;;;;;;;;;4949242;28;20181;-53
2022/09/24 05:15:35;;;;;;;12.47;8.63;;;;;;;;;;4951181;29;20725;-53
2022/09/24 05:18:01;;;;;;;15.07;8.53;;;;;;;;;;4948904;29;20169;-53
2022/09/24 05:20:27;;;;;;;9.43;8.53;;;;;;;;;;4949223;29;20249;-53
2022/09/24 05:22:53;;;;;;;8.73;7.83;;;;;;;;;;4944750;29;20173;-54
2022/09/24 05:25:20;;;;;;;9.93;8.23;;;;;;;;;;4944207;29;20632;-53
2022/09/24 05:27:50;;;;;;;7.93;7.17;;;;;;;;;;4950053;29;20180;-53
2022/09/24 05:30:17;;;;;;;11.80;8.17;;;;;;;;;;4949007;29;20220;-53
2022/09/24 05:32:43;;;;;;;8.30;7.50;;;;;;;;;;4945634;29;20184;-53
2022/09/24 05:35:09;;;;;;;9.90;7.90;;;;;;;;;;4950179;29;20192;-53
2022/09/24 05:37:37;;;;;;;9.77;7.77;;;;;;;;;;4926819;29;20207;-53
2022/09/24 05:42:48;;;;;;;9.03;8.10;;;;;;;;;;4948720;29;20231;-53
2022/09/24 05:45:16;;;;;;;11.33;8.07;;;;;;;;;;4934847;29;20193;-53
2022/09/24 05:47:43;;;;;;;11.37;7.90;;;;;;;;;;4942702;29;20283;-53
2022/09/24 05:50:09;;;;;;;9.80;7.80;;;;;;;;;;4947241;28;20735;-53
2022/09/24 05:52:36;;;;;;;12.83;9.00;;;;;;;;;;4957702;28;20232;-53
2022/09/24 05:55:03;;;;;;;8.53;7.63;;;;;;;;;;4963601;28;20206;-53
2022/09/24 05:57:29;;;;;;;9.63;7.57;;;;;;;;;;4942572;29;20184;-53
2022/09/24 05:59:55;;;;;;;9.27;7.83;;;;;;;;;;4961417;28;20176;-53
2022/09/24 06:02:21;;;;;;;7.93;6.77;;;;;;;;;;4960063;28;20180;-53
2022/09/24 06:04:47;;;;;;;8.87;7.23;;;;;;;;;;4964104;28;20187;-52
2022/09/24 06:07:13;;;;;;;11.13;8.33;;;;;;;;;;4944960;28;20196;-53
2022/09/24 06:09:39;;;;;;;10.33;7.20;;;;;;;;;;4969602;28;20183;-53
2022/09/24 06:12:07;;;;;;;8.30;7.27;;;;;;;;;;4964326;28;20271;-52
2022/09/24 06:14:33;;;;;;;9.93;8.23;;;;;;;;;;4951147;28;20216;-52
2022/09/24 06:16:59;;;;;;;7.83;7.13;;;;;;;;;;4965289;28;20176;-53
2022/09/24 06:19:25;;;;;;;10.83;8.17;;;;;;;;;;4965311;28;20685;-52
2022/09/24 06:21:51;;;;;;;8.07;7.17;;;;;;;;;;4965833;28;20554;-52
2022/09/24 06:24:17;;;;;;;9.40;8.10;;;;;;;;;;4968506;28;20194;-53
2022/09/24 06:26:43;;;;;;;8.93;7.83;;;;;;;;;;4947414;28;20778;-52
2022/09/24 06:29:09;;;;;;;9.57;7.17;;;;;;;;;;4964511;28;20180;-53
2022/09/24 06:31:35;;;;;;;8.50;7.70;;;;;;;;;;4962832;28;20173;-53
2022/09/24 06:34:01;;;;;;;10.40;6.83;;;;;;;;;;4966976;28;20312;-52
2022/09/24 06:36:28;;;;;;;7.33;6.63;;;;;;;;;;4970702;28;20176;-52
2022/09/24 06:38:54;;;;;;;9.30;7.83;;;;;;;;;;4968397;28;20207;-52
2022/09/24 06:41:21;;;;;;;10.00;7.33;;;;;;;;;;4968469;28;20244;-52
2022/09/24 06:43:47;;;;;;;10.13;8.00;;;;;;;;;;4970313;28;20254;-52
2022/09/24 06:46:14;;;;;;;8.33;7.37;;;;;;;;;;4969845;28;20523;-52
2022/09/24 06:48:41;;;;;;;10.60;8.53;;;;;;;;;;4967119;28;20180;-52
2022/09/24 06:51:07;;;;;;;10.20;8.63;;;;;;;;;;4968118;28;20454;-52
2022/09/24 06:53:33;;;;;;;10.60;7.90;;;;;;;;;;4964901;28;20236;-52
2022/09/24 06:56:02;;;;;;;10.53;8.30;;;;;;;;;;4967833;28;20180;-53
2022/09/24 06:58:28;;;;;;;8.50;7.70;;;;;;;;;;4962833;28;20176;-52
2022/09/24 07:00:59;;;;;;;12.10;7.20;;;;;;;;;;4963298;28;20653;-52
2022/09/24 07:03:26;;;;;;;11.17;8.17;;;;;;;;;;4952343;28;20183;-52
2022/09/24 07:05:52;;;;;;;8.77;7.87;;;;;;;;;;4968195;28;20183;-52
2022/09/24 07:08:18;;;;;;;9.90;8.77;;;;;;;;;;4965047;28;20234;-52
2022/09/24 07:10:44;;;;;;;9.97;8.37;;;;;;;;;;4969700;28;20191;-53
2022/09/24 07:13:11;;;;;;;8.57;7.67;;;;;;;;;;4971709;28;20191;-52
2022/09/24 07:15:38;;;;;;;8.93;8.13;;;;;;;;;;4969734;28;20192;-53
2022/09/24 07:18:04;;;;;;;9.07;7.77;;;;;;;;;;4966476;28;20192;-52
2022/09/24 07:20:32;;;;;;;10.27;8.50;;;;;;;;;;4969075;28;20187;-52
2022/09/24 07:22:58;;;;;;;10.17;8.27;;;;;;;;;;4964565;28;20193;-52
2022/09/24 07:25:26;;;;;;;10.33;7.93;;;;;;;;;;4958213;28;20613;-53
2022/09/24 07:27:53;;;;;;;9.27;8.20;;;;;;;;;;4970857;28;20194;-53
2022/09/24 07:30:19;;;;;;;8.77;7.90;;;;;;;;;;4953352;28;20184;-52
2022/09/24 07:32:45;;;;;;;10.17;7.50;;;;;;;;;;4969128;28;20188;-52
2022/09/24 07:35:11;;;;;;;8.83;7.93;;;;;;;;;;4966383;28;20283;-52
2022/09/24 07:37:37;;;;;;;9.03;8.13;;;;;;;;;;4968948;28;20196;-52
2022/09/24 07:40:03;;;;;;;10.00;8.87;;;;;;;;;;4966694;28;20195;-52
2022/09/24 07:42:29;;;;;;;8.60;7.67;;;;;;;;;;4962638;28;20179;-53
2022/09/24 07:44:55;;;;;;;8.87;7.90;;;;;;;;;;4971602;28;20635;-53
2022/09/24 07:47:22;;;;;;;12.97;8.77;;;;;;;;;;4968386;28;20242;-53
2022/09/24 07:49:48;;;;;;;8.87;7.97;;;;;;;;;;4954178;28;20207;-52
2022/09/24 07:52:17;;;;;;;8.93;7.97;;;;;;;;;;4969499;28;20231;-52
2022/09/24 07:54:43;;;;;;;9.07;7.70;;;;;;;;;;4963654;28;20208;-52
2022/09/24 07:57:13;;;;;;;9.63;8.63;;;;;;;;;;4951902;28;20176;-53
2022/09/24 07:59:39;;;;;;;13.87;9.43;;;;;;;;;;4963193;28;20222;-52
2022/09/24 08:02:14;;;;;;;12.03;10.67;;;;;;;;;;4967049;28;20184;-53
2022/09/24 08:04:40;;;;;;;11.60;9.93;;;;;;;;;;4972963;28;20183;-53
2022/09/24 08:07:06;;;;;;;11.77;10.57;;;;;;;;;;4969211;28;20222;-53
2022/09/24 08:09:32;;;;;;;12.73;11.50;;;;;;;;;;4966630;28;20651;-53
2022/09/24 08:11:58;;;;;;;13.90;11.07;;;;;;;;;;4938136;29;20196;-53
2022/09/24 08:14:24;;;;;;;13.77;11.90;;;;;;;;;;4964700;28;20231;-52
2022/09/24 08:16:50;;;;;;;14.87;13.30;;;;;;;;;;4957933;28;20204;-53
2022/09/24 08:19:23;;;;;;;13.53;11.67;;;;;;;;;;4965058;28;20176;-52
2022/09/24 08:21:49;;;;;;;12.83;11.63;;;;;;;;;;4969139;28;20176;-52
2022/09/24 08:24:16;;;;;;;16.27;12.97;;;;;;;;;;4968930;28;20176;-52
2022/09/24 08:26:42;;;;;;;13.67;12.37;;;;;;;;;;4963470;28;20188;-52
2022/09/24 08:29:08;;;;;;;15.87;13.07;;;;;;;;;;4968056;28;20207;-52
2022/09/24 08:31:35;;;;;;;13.40;12.00;;;;;;;;;;4949298;28;20568;-52
2022/09/24 08:34:02;;;;;;;13.87;11.77;;;;;;;;;;4943787;28;20280;-52
2022/09/24 08:36:28;;;;;;;16.07;13.33;;;;;;;;;;4967302;28;20183;-53
2022/09/24 08:38:54;;;;;;;14.10;12.70;;;;;;;;;;4967710;28;20207;-52
2022/09/24 08:41:27;;;;;;;14.50;12.57;;;;;;;;;;4964786;28;20677;-52
2022/09/24 08:44:04;;;;;;;13.57;11.80;;;;;;;;;;4958579;28;20168;-53
2022/09/24 08:49:21;;;;;;;14.57;12.63;;;;;;;;;;4959061;28;20195;-52
2022/09/24 08:51:59;;;;;;;13.57;12.20;;;;;;;;;;4963442;28;20211;-53
2022/09/24 08:54:27;;;;;;;13.23;11.93;;;;;;;;;;4952039;28;20223;-53
2022/09/24 08:56:55;;;;;;;14.60;13.10;;;;;;;;;;4969666;28;20654;-52
2022/09/24 08:59:29;;;;;;;14.00;12.57;;;;;;;;;;4957891;28;20627;-52
2022/09/24 09:01:58;;;;;;;16.83;13.20;;;;;;;;;;4954080;28;20567;-53
2022/09/24 09:04:39;;;;;;;16.47;12.43;;;;;;;;;;4939574;28;20230;-53
2022/09/24 09:07:19;;;;;;;14.93;13.33;;;;;;;;;;4951844;28;20638;-53
2022/09/24 09:09:50;;;;;;;15.63;13.57;;;;;;;;;;4967535;28;20179;-53
2022/09/24 09:12:27;;;;;;;14.47;12.83;;;;;;;;;;4965730;28;20246;-53
2022/09/24 09:14:56;;;;;;;17.40;14.53;;;;;;;;;;4955077;28;20215;-53
2022/09/24 09:17:22;;;;;;;14.90;13.30;;;;;;;;;;4964978;28;20267;-53
2022/09/24 09:19:53;;;;;;;15.17;12.80;;;;;;;;;;4961119;28;20259;-53
2022/09/24 09:22:22;;;;;;;14.47;12.93;;;;;;;;;;4956325;28;20188;-53
2022/09/24 09:24:49;;;;;;;15.37;13.77;;;;;;;;;;4964757;28;20171;-53
2022/09/24 09:27:16;;;;;;;16.00;13.37;;;;;;;;;;4964131;28;20199;-53
2022/09/24 09:29:50;;;;;;;16.13;13.27;;;;;;;;;;4951466;28;20587;-53
2022/09/24 09:32:31;;;;;;;15.13;13.17;;;;;;;;;;4959669;28;20179;-53
2022/09/24 09:35:03;;;;;;;15.43;13.87;;;;;;;;;;4954909;28;20558;-52
2022/09/24 09:37:38;;;;;;;19.30;13.50;;;;;;;;;;4958370;28;20214;-52
2022/09/24 09:40:23;;;;;;;15.03;12.47;;;;;;;;;;4965590;28;20165;-52
2022/09/24 09:42:51;;;;;;;14.77;13.27;;;;;;;;;;4965671;28;20270;-53
2022/09/24 09:45:38;;;;;;;15.23;13.67;;;;;;;;;;4962089;28;20218;-52
2022/09/24 09:48:04;;;;;;;15.03;13.20;;;;;;;;;;4949815;28;20196;-51
2022/09/24 09:50:31;;;;;;;15.33;12.70;;;;;;;;;;4949440;28;20182;-51
2022/09/24 09:52:57;;;;;;;13.80;12.40;;;;;;;;;;4965442;28;20246;-56
2022/09/24 09:55:32;;;;;;;15.43;12.83;;;;;;;;;;4968776;28;20246;-52
2022/09/24 09:58:10;;;;;;;15.17;12.90;;;;;;;;;;4969102;28;20177;-52
2022/09/24 10:00:37;;;;;;;13.63;12.23;;;;;;;;;;4959525;28;20176;-52
2022/09/24 10:03:04;;;;;;;13.87;12.40;;;;;;;;;;4946657;28;20238;-51
2022/09/24 10:05:30;;;;;;;12.90;11.60;;;;;;;;;;4950931;28;20305;-52
2022/09/24 10:07:57;;;;;;;13.40;11.93;;;;;;;;;;4942859;28;20190;-51
2022/09/24 10:10:24;;;;;;;14.23;12.47;;;;;;;;;;4967958;28;20235;-52
2022/09/24 10:13:07;;;;;;;12.77;11.57;;;;;;;;;;4936080;28;20590;-52
2022/09/24 10:15:34;;;;;;;11.67;10.47;;;;;;;;;;4961287;28;20421;-52
2022/09/24 10:18:00;;;;;;;12.10;10.90;;;;;;;;;;4947511;28;20188;-51
2022/09/24 10:20:30;;;;;;;12.13;11.03;;;;;;;;;;4950296;28;20196;-51
2022/09/24 10:22:58;;;;;;;12.17;10.70;;;;;;;;;;4966570;28;20190;-52
2022/09/24 10:25:25;;;;;;;11.80;10.23;;;;;;;;;;4967407;28;20179;-52
2022/09/24 10:27:53;;;;;;;11.70;10.50;;;;;;;;;;4958874;28;20238;-53
2022/09/24 10:30:34;;;;;;;11.30;10.13;;;;;;;;;;4966784;28;20180;-53
2022/09/24 10:33:02;;;;;;;12.47;10.77;;;;;;;;;;4966136;28;20701;-53
2022/09/24 10:35:37;;;;;;;13.40;11.47;;;;;;;;;;4967280;28;20205;-52
2022/09/24 10:38:23;;;;;;;15.73;10.67;;;;;;;;;;4967337;28;20289;-53
2022/09/24 10:40:50;;;;;;;14.17;9.87;;;;;;;;;;4954253;28;20182;-52
2022/09/24 10:43:25;;;;;;;11.97;10.50;;;;;;;;;;4948940;28;20188;-53
2022/09/24 10:45:57;;;;;;;11.43;9.67;;;;;;;;;;4962429;28;20725;-53
2022/09/24 10:48:27;;;;;;;13.87;10.43;;;;;;;;;;4967185;28;20665;-54
2022/09/24 10:50:57;;;;;;;11.90;9.47;;;;;;;;;;4933886;28;20293;-53
2022/09/24 10:53:26;;;;;;;11.43;10.33;;;;;;;;;;4967301;28;20283;-53
2022/09/24 10:56:15;;;;;;;10.03;8.73;;;;;;;;;;4953751;28;20180;-53
2022/09/24 10:58:58;;;;;;;12.30;9.60;;;;;;;;;;4945651;28;20694;-53
2022/09/24 11:01:31;;;;;;;9.50;8.53;;;;;;;;;;4965917;28;20172;-53
2022/09/24 11:04:30;;;;;;;10.17;8.80;;;;;;;;;;4966232;28;20184;-53
2022/09/24 11:07:15;;;;;;;8.93;8.03;;;;;;;;;;4935244;28;20205;-53
2022/09/24 11:09:46;;;;;;;7.50;6.80;;;;;;;;;;4963545;28;20191;-53
2022/09/24 11:12:17;;;;;;;9.00;7.33;;;;;;;;;;4970476;28;20184;-53
2022/09/24 11:15:06;;;;;;;10.53;7.10;;;;;;;;;;4961279;28;20251;-53
2022/09/24 11:17:51;;;;;;;9.00;7.03;;;;;;;;;;4945992;28;20177;-53
2022/09/24 11:20:27;;;;;;;9.07;7.17;;;;;;;;;;4958526;28;20173;-53
2022/09/24 11:23:12;;;;;;;9.40;7.27;;;;;;;;;;4953589;28;20264;-53
2022/09/24 11:25:48;;;;;;;10.50;7.20;;;;;;;;;;4954025;28;20266;-53
2022/09/24 11:28:38;;;;;;;8.97;7.57;;;;;;;;;;4958695;28;20279;-53
2022/09/24 11:31:23;;;;;;;7.80;7.10;;;;;;;;;;4947390;28;20207;-53
2022/09/24 11:34:10;;;;;;;7.50;6.77;;;;;;;;;;4951038;28;20196;-53
2022/09/24 11:36:48;;;;;;;8.37;6.90;;;;;;;;;;4940650;28;20183;-53
2022/09/24 11:39:15;;;;;;;7.40;6.33;;;;;;;;;;4940419;28;20173;-53
2022/09/24 11:41:49;;;;;;;8.17;6.83;;;;;;;;;;4954206;28;20258;-54
2022/09/24 11:44:25;;;;;;;7.73;6.50;;;;;;;;;;4957391;28;20205;-53
2022/09/24 11:47:01;;;;;;;8.50;7.70;;;;;;;;;;4947074;28;20195;-53
2022/09/24 11:49:37;;;;;;;9.47;8.27;;;;;;;;;;4967460;28;20188;-53
2022/09/24 11:52:03;;;;;;;7.40;6.70;;;;;;;;;;4955748;28;20187;-53
2022/09/24 11:54:33;;;;;;;8.33;7.53;;;;;;;;;;4941647;28;20676;-53
2022/09/24 11:57:09;;;;;;;9.40;7.53;;;;;;;;;;4966917;28;20546;-53
2022/09/24 11:59:44;;;;;;;10.90;9.80;;;;;;;;;;4960301;28;20332;-52
2022/09/24 12:02:16;;;;;;;9.77;8.77;;;;;;;;;;4962629;28;20198;-53
2022/09/24 12:05:02;;;;;;;8.77;7.57;;;;;;;;;;4959086;28;20984;-53
2022/09/24 12:07:34;;;;;;;8.80;7.97;;;;;;;;;;4963489;28;20636;-53
2022/09/24 12:10:03;;;;;;;8.70;7.80;;;;;;;;;;4935084;28;20196;-53
2022/09/24 12:12:39;;;;;;;9.83;8.83;;;;;;;;;;4954147;28;20231;-52
2022/09/24 12:15:26;;;;;;;9.83;7.63;;;;;;;;;;4944424;28;20292;-52
2022/09/24 12:17:58;;;;;;;9.80;8.73;;;;;;;;;;4946933;28;20202;-52
2022/09/24 12:20:27;;;;;;;12.37;9.50;;;;;;;;;;4965317;28;20574;-53
2022/09/24 12:23:06;;;;;;;9.10;8.27;;;;;;;;;;4967842;28;20521;-52
2022/09/24 12:25:38;;;;;;;9.50;8.60;;;;;;;;;;4967468;28;20267;-53
2022/09/24 12:28:04;;;;;;;9.17;8.30;;;;;;;;;;4956072;28;20222;-52
2022/09/24 12:33:40;;;;;;;9.83;8.83;;;;;;;;;;4955200;28;20220;-52
2022/09/24 12:36:16;;;;;;;9.70;8.80;;;;;;;;;;4959797;28;20232;-52
2022/09/24 12:38:57;;;;;;;9.60;8.60;;;;;;;;;;4964542;28;20253;-52
2022/09/24 12:41:26;;;;;;;10.27;9.27;;;;;;;;;;4940829;28;20210;-52
2022/09/24 12:43:55;;;;;;;10.03;9.03;;;;;;;;;;4958370;28;20521;-51
2022/09/24 12:46:23;;;;;;;10.37;9.37;;;;;;;;;;4951797;28;20673;-52
2022/09/24 12:48:50;;;;;;;10.57;9.47;;;;;;;;;;4960242;28;20177;-52
2022/09/24 12:51:21;;;;;;;10.47;9.47;;;;;;;;;;4959436;28;20195;-51
2022/09/24 12:53:58;;;;;;;9.50;8.60;;;;;;;;;;4954989;28;20685;-52
2022/09/24 12:56:25;;;;;;;10.80;9.70;;;;;;;;;;4951352;28;20206;-52
2022/09/24 12:58:52;;;;;;;9.90;8.90;;;;;;;;;;4958257;28;20545;-52
2022/09/24 13:01:24;;;;;;;10.53;9.53;;;;;;;;;;4948169;28;20201;-52
2022/09/24 13:04:25;;;;;;;11.17;10.03;;;;;;;;;;4958269;28;20623;-52
2022/09/24 13:06:52;;;;;;;10.30;9.10;;;;;;;;;;4960388;28;20619;-51
2022/09/24 13:09:34;;;;;;;12.37;9.33;;;;;;;;;;4957574;28;20719;-52
2022/09/24 13:12:21;;;;;;;10.33;9.33;;;;;;;;;;4934267;28;20258;-51
2022/09/24 13:15:01;;;;;;;11.93;9.77;;;;;;;;;;4956185;28;20211;-52
2022/09/24 13:17:29;;;;;;;11.53;10.40;;;;;;;;;;4960217;28;20179;-51
2022/09/24 13:19:57;;;;;;;12.83;10.30;;;;;;;;;;4944194;28;20325;-51
2022/09/24 13:22:30;;;;;;;11.33;10.00;;;;;;;;;;4965823;28;20613;-52
2022/09/24 13:25:08;;;;;;;9.97;8.97;;;;;;;;;;4959715;28;20179;-52
2022/09/24 13:27:36;;;;;;;10.20;9.17;;;;;;;;;;4953013;28;20542;-52
2022/09/24 13:30:08;;;;;;;11.37;10.07;;;;;;;;;;4959428;28;21907;-52
2022/09/24 13:32:54;;;;;;;11.30;10.10;;;;;;;;;;4940177;28;20235;-51
2022/09/24 13:35:24;;;;;;;10.90;9.83;;;;;;;;;;4961255;28;20199;-52
2022/09/24 13:37:55;;;;;;;12.00;10.00;;;;;;;;;;4937605;28;20286;-51
2022/09/24 13:40:25;;;;;;;11.33;10.23;;;;;;;;;;4964846;28;20220;-51
2022/09/24 13:42:56;;;;;;;11.57;10.37;;;;;;;;;;4947641;28;20567;-51
2022/09/24 13:45:23;;;;;;;11.90;10.70;;;;;;;;;;4946144;28;20250;-52
2022/09/24 13:47:53;;;;;;;11.35;10.23;;;;;;;;;;4955312;28;20439;-52
2022/09/24 13:50:22;;;;;;;10.00;9.03;;;;;;;;;;4958793;28;20207;-52
2022/09/24 13:52:48;;;;;;;13.20;10.50;;;;;;;;;;4955788;28;20287;-51
2022/09/24 13:55:20;;;;;;;10.97;9.80;;;;;;;;;;4956493;28;20674;-52
2022/09/24 13:57:46;;;;;;;10.73;9.73;;;;;;;;;;4967399;28;20176;-51
2022/09/24 14:00:18;;;;;;;15.40;11.53;;;;;;;;;;4943683;28;20184;-51
2022/09/24 14:03:10;;;;;;;12.37;10.90;;;;;;;;;;4958203;28;20168;-51
2022/09/24 14:05:37;;;;;;;12.70;10.33;;;;;;;;;;4953516;28;20580;-52
2022/09/24 14:08:08;;;;;;;12.30;11.00;;;;;;;;;;4938350;28;20659;-50
2022/09/24 14:10:34;;;;;;;12.60;10.13;;;;;;;;;;4945903;28;20707;-51
2022/09/24 14:13:16;;;;;;;11.43;10.30;;;;;;;;;;4955765;28;20184;-51
2022/09/24 14:16:05;;;;;;;11.43;10.43;;;;;;;;;;4962065;28;20251;-51
2022/09/24 14:18:31;;;;;;;12.23;10.20;;;;;;;;;;4960008;28;20199;-52
2022/09/24 14:21:03;;;;;;;11.40;10.23;;;;;;;;;;4935978;28;20189;-52
2022/09/24 14:23:31;;;;;;;12.17;10.90;;;;;;;;;;4958073;28;20178;-51
2022/09/24 14:25:58;;;;;;;12.33;10.73;;;;;;;;;;4963397;28;20344;-51
2022/09/24 14:28:24;;;;;;;11.70;10.60;;;;;;;;;;4966894;28;20188;-51
2022/09/24 14:30:55;;;;;;;11.90;10.70;;;;;;;;;;4961802;28;20187;-51
2022/09/24 14:33:25;;;;;;;12.33;11.03;;;;;;;;;;4963977;28;20194;-52
2022/09/24 14:35:53;;;;;;;11.60;10.53;;;;;;;;;;4956961;28;20749;-52
2022/09/24 14:38:34;;;;;;;11.17;10.17;;;;;;;;;;4960282;28;20203;-53
2022/09/24 14:41:07;;;;;;;9.77;8.87;;;;;;;;;;4953095;28;20647;-53
2022/09/24 14:44:06;;;;;;;12.67;10.70;;;;;;;;;;4963633;28;20377;-52
2022/09/24 14:46:35;;;;;;;10.63;9.53;;;;;;;;;;4943163;28;20298;-52
2022/09/24 14:49:24;;;;;;;11.70;10.07;;;;;;;;;;4970429;28;20190;-52
2022/09/24 14:51:51;;;;;;;11.77;10.57;;;;;;;;;;4957556;28;20681;-52
2022/09/24 14:54:19;;;;;;;11.27;10.23;;;;;;;;;;4954812;28;20234;-52
2022/09/24 14:56:46;;;;;;;11.77;9.80;;;;;;;;;;4964214;28;20182;-52
2022/09/24 14:59:17;;;;;;;10.90;9.90;;;;;;;;;;4967683;28;20550;-52
2022/09/24 15:01:43;;;;;;;11.30;9.77;;;;;;;;;;4943524;28;20284;-53